Time;durP1;ratioP1;P1;durP2;ratioP2;P2;SDS_P1;SDS_P2;PMS_P1;PMS_P2;Temp;Humidity;BMP_temperature;BMP_pressure;BME280_temperature;BME280_humidity;BME280_pressure;Samples;Min_cycle;Max_cycle;Signal;HPM_P1;HPM_P2
2024/01/23 00:01:00;;;;;;;21.65;2.88;;;;;;;;;;4952525;28;20071;-83
2024/01/23 00:03:25;;;;;;;26.85;2.83;;;;;;;;;;4952039;28;20039;-81
2024/01/23 00:05:51;;;;;;;18.15;2.85;;;;;;;;;;4949151;28;20122;-82
2024/01/23 00:08:17;;;;;;;26.75;3.10;;;;;;;;;;4936449;28;20070;-82
2024/01/23 00:10:42;;;;;;;18.23;2.42;;;;;;;;;;4969113;28;20030;-83
2024/01/23 00:13:08;;;;;;;26.95;3.38;;;;;;;;;;4967955;28;20066;-81
2024/01/23 00:15:35;;;;;;;27.30;3.83;;;;;;;;;;4965778;28;20046;-82
2024/01/23 00:18:01;;;;;;;25.88;3.40;;;;;;;;;;4971442;28;20058;-81
2024/01/23 00:20:26;;;;;;;18.75;3.33;;;;;;;;;;4971186;28;20043;-82
2024/01/23 00:22:52;;;;;;;23.25;3.00;;;;;;;;;;4968866;28;20038;-81
2024/01/23 00:25:17;;;;;;;21.63;3.70;;;;;;;;;;4968861;28;20277;-83
2024/01/23 00:27:43;;;;;;;22.98;3.22;;;;;;;;;;4971502;28;20097;-82
2024/01/23 00:30:09;;;;;;;26.67;3.90;;;;;;;;;;4968757;28;20078;-82
2024/01/23 00:32:35;;;;;;;20.27;3.80;;;;;;;;;;4930496;29;20055;-80
2024/01/23 00:35:00;;;;;;;21.65;3.25;;;;;;;;;;4930545;28;20034;-81
2024/01/23 00:37:26;;;;;;;23.40;3.30;;;;;;;;;;4916622;29;20037;-83
2024/01/23 00:39:52;;;;;;;30.25;4.47;;;;;;;;;;4916681;29;20063;-82
2024/01/23 00:42:17;;;;;;;21.70;3.20;;;;;;;;;;4919502;29;20044;-81
2024/01/23 00:44:43;;;;;;;24.17;4.00;;;;;;;;;;4922680;29;20050;-83
2024/01/23 00:47:09;;;;;;;21.60;3.40;;;;;;;;;;4932450;29;20055;-85
2024/01/23 00:49:34;;;;;;;25.95;3.38;;;;;;;;;;4937147;28;20026;-82
2024/01/23 00:51:59;;;;;;;26.10;3.53;;;;;;;;;;4941019;29;20079;-82
2024/01/23 00:54:25;;;;;;;22.17;3.30;;;;;;;;;;4932083;29;20730;-82
2024/01/23 00:56:50;;;;;;;20.45;3.33;;;;;;;;;;4943697;29;20047;-82
2024/01/23 00:59:16;;;;;;;24.00;3.08;;;;;;;;;;4932327;29;20035;-83
2024/01/23 01:01:42;;;;;;;28.00;4.18;;;;;;;;;;4936650;29;20472;-83
2024/01/23 01:04:07;;;;;;;22.23;2.58;;;;;;;;;;4941241;29;20031;-82
2024/01/23 01:06:32;;;;;;;20.42;3.92;;;;;;;;;;4941055;29;20516;-83
2024/01/23 01:08:58;;;;;;;24.55;3.13;;;;;;;;;;4942346;29;20097;-81
2024/01/23 01:11:24;;;;;;;18.17;3.38;;;;;;;;;;4938287;28;20054;-82
2024/01/23 01:13:49;;;;;;;26.23;4.15;;;;;;;;;;4940569;28;20039;-82
2024/01/23 01:16:15;;;;;;;34.95;4.47;;;;;;;;;;4943706;29;20047;-82
2024/01/23 01:18:40;;;;;;;27.45;3.92;;;;;;;;;;4939280;29;20047;-82
2024/01/23 01:21:07;;;;;;;27.00;4.10;;;;;;;;;;4944653;29;20473;-82
2024/01/23 01:23:33;;;;;;;19.33;3.80;;;;;;;;;;4936451;28;20126;-81
2024/01/23 01:25:59;;;;;;;27.30;4.90;;;;;;;;;;4938894;29;20035;-81
2024/01/23 01:28:25;;;;;;;26.48;4.10;;;;;;;;;;4932549;29;20066;-81
2024/01/23 01:30:50;;;;;;;17.27;3.83;;;;;;;;;;4939792;29;20134;-80
2024/01/23 01:33:17;;;;;;;21.27;3.03;;;;;;;;;;4938556;28;20043;-81
2024/01/23 01:35:42;;;;;;;16.27;2.85;;;;;;;;;;4934526;29;20035;-81
2024/01/23 01:38:08;;;;;;;25.75;3.58;;;;;;;;;;4941087;28;20027;-82
2024/01/23 01:40:33;;;;;;;21.70;2.92;;;;;;;;;;4938647;29;20031;-81
2024/01/23 01:42:59;;;;;;;25.20;4.28;;;;;;;;;;4947018;29;20058;-83
2024/01/23 01:45:24;;;;;;;23.92;3.58;;;;;;;;;;4948930;28;20050;-82
2024/01/23 01:47:50;;;;;;;18.45;3.63;;;;;;;;;;4940062;28;20238;-84
2024/01/23 01:50:16;;;;;;;19.95;3.30;;;;;;;;;;4931234;29;20134;-84
2024/01/23 01:52:42;;;;;;;18.70;2.60;;;;;;;;;;4938406;29;20031;-82
2024/01/23 01:55:11;;;;;;;16.77;3.40;;;;;;;;;;4928937;29;20040;-84
2024/01/23 01:57:39;;;;;;;21.23;3.25;;;;;;;;;;4932071;29;20048;-81
2024/01/23 02:00:08;;;;;;;19.30;2.53;;;;;;;;;;4951615;28;20933;-83
2024/01/23 02:02:36;;;;;;;22.23;3.35;;;;;;;;;;4934112;28;20032;-84
2024/01/23 02:05:02;;;;;;;12.80;2.47;;;;;;;;;;4933558;29;20035;-81
2024/01/23 02:07:28;;;;;;;10.73;2.08;;;;;;;;;;4936599;29;20533;-82
2024/01/23 02:09:53;;;;;;;18.98;3.10;;;;;;;;;;4936082;29;20046;-84
2024/01/23 02:12:19;;;;;;;21.73;2.80;;;;;;;;;;4936742;29;20040;-81
2024/01/23 02:14:44;;;;;;;14.10;1.85;;;;;;;;;;4939064;29;20043;-82
2024/01/23 02:17:09;;;;;;;20.02;2.70;;;;;;;;;;4935969;29;20078;-82
2024/01/23 02:19:35;;;;;;;12.10;1.65;;;;;;;;;;4936940;29;20074;-81
2024/01/23 02:22:00;;;;;;;12.38;2.38;;;;;;;;;;4933977;29;20070;-83
2024/01/23 02:24:25;;;;;;;19.52;3.05;;;;;;;;;;4932837;29;20047;-81
2024/01/23 02:26:51;;;;;;;22.08;2.17;;;;;;;;;;4941128;28;20043;-81
2024/01/23 02:29:16;;;;;;;14.80;2.67;;;;;;;;;;4947726;28;20042;-83
2024/01/23 02:31:42;;;;;;;7.00;1.42;;;;;;;;;;4942288;28;20522;-81
2024/01/23 02:34:07;;;;;;;11.68;1.90;;;;;;;;;;4935759;29;20042;-82
2024/01/23 02:36:39;;;;;;;14.07;2.42;;;;;;;;;;4945752;28;20070;-83
2024/01/23 02:39:05;;;;;;;8.93;1.92;;;;;;;;;;4937669;29;20059;-83
2024/01/23 02:41:30;;;;;;;14.55;1.73;;;;;;;;;;4938237;29;20044;-81
2024/01/23 02:43:55;;;;;;;15.35;2.50;;;;;;;;;;4930220;29;20484;-84
2024/01/23 02:46:21;;;;;;;17.42;3.05;;;;;;;;;;4947343;29;20102;-83
2024/01/23 02:48:46;;;;;;;15.55;2.50;;;;;;;;;;4935072;29;20072;-82
2024/01/23 02:51:19;;;;;;;14.75;2.30;;;;;;;;;;4935828;29;20051;-83
2024/01/23 02:53:44;;;;;;;11.50;1.63;;;;;;;;;;4929174;29;20046;-82
2024/01/23 02:56:10;;;;;;;15.77;2.05;;;;;;;;;;4933838;29;20028;-83
2024/01/23 02:58:35;;;;;;;13.95;2.00;;;;;;;;;;4931743;29;20019;-84
2024/01/23 03:01:00;;;;;;;13.57;2.00;;;;;;;;;;4945510;28;20040;-81
2024/01/23 03:03:26;;;;;;;15.63;2.05;;;;;;;;;;4942063;29;20103;-83
2024/01/23 03:05:51;;;;;;;10.32;1.92;;;;;;;;;;4935140;29;20044;-83
2024/01/23 03:08:17;;;;;;;17.00;2.75;;;;;;;;;;4930854;29;20282;-82
2024/01/23 03:10:42;;;;;;;13.85;2.15;;;;;;;;;;4941412;29;20031;-82
2024/01/23 03:13:07;;;;;;;17.40;2.40;;;;;;;;;;4934475;29;20043;-82
2024/01/23 03:15:33;;;;;;;15.63;2.30;;;;;;;;;;4931279;29;20059;-82
2024/01/23 03:17:59;;;;;;;15.85;2.63;;;;;;;;;;4938722;28;20513;-81
2024/01/23 03:20:28;;;;;;;19.73;3.08;;;;;;;;;;4944807;29;20052;-82
2024/01/23 03:22:53;;;;;;;13.88;3.40;;;;;;;;;;4937083;29;20527;-83
2024/01/23 03:25:19;;;;;;;22.70;2.13;;;;;;;;;;4941364;28;20039;-82
2024/01/23 03:27:45;;;;;;;11.32;1.75;;;;;;;;;;4945722;29;20047;-82
2024/01/23 03:30:26;;;;;;;16.23;2.10;;;;;;;;;;4937483;28;20066;-82
2024/01/23 03:32:52;;;;;;;18.85;2.60;;;;;;;;;;4956925;28;20193;-82
2024/01/23 03:35:17;;;;;;;16.02;2.13;;;;;;;;;;4952385;28;20078;-82
2024/01/23 03:37:42;;;;;;;20.02;2.35;;;;;;;;;;4949127;28;20563;-82
2024/01/23 03:40:08;;;;;;;17.23;2.65;;;;;;;;;;4942869;29;20032;-82
2024/01/23 03:42:34;;;;;;;15.10;2.20;;;;;;;;;;4950777;28;20141;-82
2024/01/23 03:44:59;;;;;;;12.73;2.05;;;;;;;;;;4949973;28;20561;-81
2024/01/23 03:47:24;;;;;;;22.17;2.97;;;;;;;;;;4949574;28;20038;-81
2024/01/23 03:49:50;;;;;;;12.40;2.28;;;;;;;;;;4965748;28;20503;-81
2024/01/23 03:52:16;;;;;;;22.42;2.45;;;;;;;;;;4970670;28;20077;-81
2024/01/23 03:54:42;;;;;;;16.33;3.30;;;;;;;;;;4954330;28;20043;-81
2024/01/23 03:57:07;;;;;;;22.35;3.25;;;;;;;;;;4952301;28;20520;-82
2024/01/23 03:59:32;;;;;;;18.67;2.33;;;;;;;;;;4950370;28;20043;-81
2024/01/23 04:01:58;;;;;;;15.13;2.13;;;;;;;;;;4948035;29;20212;-81
2024/01/23 04:04:23;;;;;;;17.48;2.22;;;;;;;;;;4947562;28;20043;-81
2024/01/23 04:06:49;;;;;;;17.98;2.25;;;;;;;;;;4951738;28;20445;-82
2024/01/23 04:09:14;;;;;;;11.98;1.70;;;;;;;;;;4947277;28;20051;-83
2024/01/23 04:11:40;;;;;;;13.50;2.05;;;;;;;;;;4943062;29;20832;-83
2024/01/23 04:14:05;;;;;;;11.27;2.38;;;;;;;;;;4943092;28;20031;-85
2024/01/23 04:16:30;;;;;;;21.48;2.97;;;;;;;;;;4950671;29;20055;-82
2024/01/23 04:18:56;;;;;;;21.42;2.45;;;;;;;;;;4951888;28;20047;-82
2024/01/23 04:21:22;;;;;;;12.88;2.95;;;;;;;;;;4947618;28;20035;-82
2024/01/23 04:23:47;;;;;;;23.25;2.17;;;;;;;;;;4943672;28;20485;-82
2024/01/23 04:26:13;;;;;;;16.52;2.30;;;;;;;;;;4949579;28;20035;-82
2024/01/23 04:28:39;;;;;;;17.90;2.60;;;;;;;;;;4950302;28;20127;-82
2024/01/23 04:31:04;;;;;;;13.57;2.22;;;;;;;;;;4940062;28;20150;-82
2024/01/23 04:33:30;;;;;;;15.60;2.70;;;;;;;;;;4951405;28;20731;-82
2024/01/23 04:35:55;;;;;;;26.00;3.58;;;;;;;;;;4947115;28;20043;-82
2024/01/23 04:38:21;;;;;;;18.73;2.50;;;;;;;;;;4946343;28;20050;-82
2024/01/23 04:40:46;;;;;;;13.63;3.60;;;;;;;;;;4948867;29;20473;-81
2024/01/23 04:43:12;;;;;;;15.00;2.38;;;;;;;;;;4949415;28;20046;-83
2024/01/23 04:45:37;;;;;;;10.88;1.85;;;;;;;;;;4949088;28;20102;-82
2024/01/23 04:48:03;;;;;;;19.15;2.47;;;;;;;;;;4950350;28;20105;-82
2024/01/23 04:50:28;;;;;;;17.17;2.95;;;;;;;;;;4943426;28;20117;-82
2024/01/23 04:52:56;;;;;;;18.35;2.30;;;;;;;;;;4952371;28;20129;-82
2024/01/23 04:55:21;;;;;;;23.17;3.65;;;;;;;;;;4947640;28;20066;-81
2024/01/23 04:57:47;;;;;;;29.30;3.00;;;;;;;;;;4937258;28;20082;-81
2024/01/23 05:00:13;;;;;;;18.05;3.47;;;;;;;;;;4944091;28;20050;-82
2024/01/23 05:02:38;;;;;;;18.23;2.72;;;;;;;;;;4946148;28;20530;-83
2024/01/23 05:05:04;;;;;;;15.68;3.00;;;;;;;;;;4939637;28;20042;-84
2024/01/23 05:07:29;;;;;;;17.60;2.53;;;;;;;;;;4950301;29;20106;-82
2024/01/23 05:09:55;;;;;;;16.88;2.75;;;;;;;;;;4944199;28;20124;-83
2024/01/23 05:12:20;;;;;;;25.40;3.20;;;;;;;;;;4951150;28;20432;-82
2024/01/23 05:14:45;;;;;;;19.15;2.58;;;;;;;;;;4950332;28;20559;-82
2024/01/23 05:17:11;;;;;;;16.27;2.42;;;;;;;;;;4943838;28;20027;-82
2024/01/23 05:19:36;;;;;;;24.13;3.10;;;;;;;;;;4951946;29;20039;-84
2024/01/23 05:22:02;;;;;;;10.60;1.90;;;;;;;;;;4948589;28;20043;-82
2024/01/23 05:24:28;;;;;;;24.98;3.03;;;;;;;;;;4949629;28;20054;-83
2024/01/23 05:26:53;;;;;;;20.48;3.08;;;;;;;;;;4951207;28;20043;-82
2024/01/23 05:29:19;;;;;;;17.90;2.58;;;;;;;;;;4949836;28;21423;-83
2024/01/23 05:31:45;;;;;;;19.10;3.40;;;;;;;;;;4944366;29;20051;-82
2024/01/23 05:34:10;;;;;;;19.63;3.38;;;;;;;;;;4948916;28;20047;-83
2024/01/23 05:36:35;;;;;;;24.33;3.53;;;;;;;;;;4950896;28;20509;-83
2024/01/23 05:39:01;;;;;;;16.65;2.70;;;;;;;;;;4941402;28;20062;-83
2024/01/23 05:41:26;;;;;;;18.85;3.63;;;;;;;;;;4948048;28;20074;-81
2024/01/23 05:43:51;;;;;;;21.13;3.03;;;;;;;;;;4951211;28;20035;-82
2024/01/23 05:46:17;;;;;;;14.32;2.42;;;;;;;;;;4947150;28;20043;-81
2024/01/23 05:48:43;;;;;;;25.77;3.53;;;;;;;;;;4948359;28;20355;-81
2024/01/23 05:51:08;;;;;;;25.67;2.80;;;;;;;;;;4950669;28;20054;-82
2024/01/23 05:53:34;;;;;;;22.67;3.35;;;;;;;;;;4942268;28;20047;-83
2024/01/23 05:56:00;;;;;;;14.73;2.95;;;;;;;;;;4942951;28;20101;-82
2024/01/23 05:58:25;;;;;;;20.63;2.92;;;;;;;;;;4949735;28;20050;-83
2024/01/23 06:00:51;;;;;;;25.38;3.53;;;;;;;;;;4964224;28;20429;-82
2024/01/23 06:03:16;;;;;;;25.45;2.85;;;;;;;;;;4957379;28;20221;-82
2024/01/23 06:05:41;;;;;;;19.60;3.55;;;;;;;;;;4963168;28;20066;-82
2024/01/23 06:08:07;;;;;;;23.27;2.78;;;;;;;;;;4949597;28;20033;-82
2024/01/23 06:10:32;;;;;;;19.52;2.80;;;;;;;;;;4947894;29;20075;-83
2024/01/23 06:12:57;;;;;;;18.05;2.67;;;;;;;;;;4943327;28;20110;-83
2024/01/23 06:15:23;;;;;;;19.35;2.47;;;;;;;;;;4945496;28;20051;-84
2024/01/23 06:17:49;;;;;;;13.45;2.28;;;;;;;;;;4947613;28;20099;-82
2024/01/23 06:20:14;;;;;;;11.75;2.83;;;;;;;;;;4944804;28;20042;-83
2024/01/23 06:22:40;;;;;;;17.65;2.60;;;;;;;;;;4950813;29;20148;-83
2024/01/23 06:25:08;;;;;;;28.23;2.88;;;;;;;;;;4946507;28;20043;-83
2024/01/23 06:27:33;;;;;;;19.20;2.33;;;;;;;;;;4946549;28;20102;-83
2024/01/23 06:29:59;;;;;;;16.48;2.65;;;;;;;;;;4949936;28;20066;-83
2024/01/23 06:32:25;;;;;;;23.83;3.45;;;;;;;;;;4951831;28;20623;-83
2024/01/23 06:34:53;;;;;;;16.90;2.47;;;;;;;;;;4952465;28;20038;-82
2024/01/23 06:37:20;;;;;;;19.08;3.25;;;;;;;;;;4948002;28;20542;-83
2024/01/23 06:39:46;;;;;;;17.50;2.97;;;;;;;;;;4960047;28;20050;-83
2024/01/23 06:42:11;;;;;;;15.90;2.20;;;;;;;;;;4965144;28;20055;-83
2024/01/23 06:44:38;;;;;;;16.65;2.78;;;;;;;;;;4952252;28;20050;-83
2024/01/23 06:47:03;;;;;;;16.15;2.38;;;;;;;;;;4969291;28;20041;-82
2024/01/23 06:49:29;;;;;;;15.98;3.17;;;;;;;;;;4943987;28;20031;-83
2024/01/23 06:51:54;;;;;;;13.95;2.30;;;;;;;;;;4965427;28;20678;-82
2024/01/23 06:54:19;;;;;;;13.43;2.13;;;;;;;;;;4943215;28;20122;-82
2024/01/23 06:56:46;;;;;;;21.15;2.75;;;;;;;;;;4972946;28;20046;-82
2024/01/23 06:59:12;;;;;;;19.08;2.63;;;;;;;;;;4972308;28;20495;-81
2024/01/23 07:01:38;;;;;;;15.10;2.17;;;;;;;;;;4955796;28;20022;-83
2024/01/23 07:04:04;;;;;;;12.85;2.17;;;;;;;;;;4952974;28;20099;-82
2024/01/23 07:06:29;;;;;;;18.58;2.75;;;;;;;;;;4972858;28;20136;-81
2024/01/23 07:08:55;;;;;;;15.77;2.42;;;;;;;;;;4970223;28;20046;-82
2024/01/23 07:11:20;;;;;;;14.65;2.53;;;;;;;;;;4961572;28;20122;-82
2024/01/23 07:13:46;;;;;;;18.08;2.22;;;;;;;;;;4964727;28;20053;-83
2024/01/23 07:16:12;;;;;;;19.33;3.42;;;;;;;;;;4967677;28;20039;-83
2024/01/23 07:18:37;;;;;;;13.88;2.72;;;;;;;;;;4932913;28;20636;-82
2024/01/23 07:21:03;;;;;;;29.95;3.08;;;;;;;;;;4923001;29;20066;-83
2024/01/23 07:23:28;;;;;;;17.65;2.85;;;;;;;;;;4925660;29;20039;-81
2024/01/23 07:25:54;;;;;;;22.98;3.22;;;;;;;;;;4937642;29;20035;-82
2024/01/23 07:28:19;;;;;;;25.77;2.80;;;;;;;;;;4936581;29;20046;-82
2024/01/23 07:30:44;;;;;;;17.48;2.50;;;;;;;;;;4927947;29;20055;-82
2024/01/23 07:33:10;;;;;;;26.42;3.72;;;;;;;;;;4938824;28;20048;-82
2024/01/23 07:35:35;;;;;;;17.25;3.03;;;;;;;;;;4937732;28;20059;-84
2024/01/23 07:38:01;;;;;;;29.33;2.80;;;;;;;;;;4938077;28;20031;-83
2024/01/23 07:40:26;;;;;;;20.85;3.50;;;;;;;;;;4931426;29;20024;-82
2024/01/23 07:42:52;;;;;;;20.73;2.92;;;;;;;;;;4948950;28;20051;-81
2024/01/23 07:45:17;;;;;;;28.23;2.80;;;;;;;;;;4948168;28;20059;-81
2024/01/23 07:47:42;;;;;;;24.83;3.55;;;;;;;;;;4946576;28;20129;-82
2024/01/23 07:50:08;;;;;;;30.65;4.47;;;;;;;;;;4952153;28;20031;-82
2024/01/23 07:52:35;;;;;;;21.55;3.50;;;;;;;;;;4950105;29;20111;-83
2024/01/23 07:55:02;;;;;;;27.05;3.53;;;;;;;;;;4939009;29;20129;-82
2024/01/23 07:57:28;;;;;;;14.27;3.17;;;;;;;;;;4946570;28;20551;-82
2024/01/23 07:59:53;;;;;;;18.05;3.35;;;;;;;;;;4950236;28;20071;-82
2024/01/23 08:02:19;;;;;;;21.38;3.00;;;;;;;;;;4938588;28;20424;-83
2024/01/23 08:04:44;;;;;;;20.52;3.08;;;;;;;;;;4943265;28;20023;-82
2024/01/23 08:07:10;;;;;;;14.25;2.45;;;;;;;;;;4949475;29;20428;-84
2024/01/23 08:09:35;;;;;;;19.27;2.78;;;;;;;;;;4950249;29;20050;-83
2024/01/23 08:12:01;;;;;;;27.27;4.05;;;;;;;;;;4953711;28;20054;-81
2024/01/23 08:14:27;;;;;;;33.65;3.65;;;;;;;;;;4946832;29;20050;-81
2024/01/23 08:16:52;;;;;;;29.80;3.85;;;;;;;;;;4951891;28;20027;-82
2024/01/23 08:19:18;;;;;;;18.88;4.03;;;;;;;;;;4951012;29;20405;-83
2024/01/23 08:21:43;;;;;;;21.02;3.72;;;;;;;;;;4945086;28;20054;-82
2024/01/23 08:24:08;;;;;;;15.70;2.75;;;;;;;;;;4946810;28;20043;-83
2024/01/23 08:26:34;;;;;;;22.60;3.00;;;;;;;;;;4949280;29;20506;-83
2024/01/23 08:28:59;;;;;;;31.23;3.67;;;;;;;;;;4953375;28;20050;-81
2024/01/23 08:31:25;;;;;;;25.00;3.83;;;;;;;;;;4945639;29;20055;-83
2024/01/23 08:33:50;;;;;;;24.88;3.35;;;;;;;;;;4953397;28;20051;-83
2024/01/23 08:36:16;;;;;;;18.20;2.97;;;;;;;;;;4951538;29;20134;-83
2024/01/23 08:38:43;;;;;;;20.05;3.05;;;;;;;;;;4945692;28;20069;-82
2024/01/23 08:41:09;;;;;;;28.05;3.63;;;;;;;;;;4955475;28;20068;-83
2024/01/23 08:43:35;;;;;;;21.38;2.97;;;;;;;;;;4951454;28;20089;-84
2024/01/23 08:46:01;;;;;;;27.90;3.80;;;;;;;;;;4953063;28;20456;-87
2024/01/23 08:48:28;;;;;;;21.95;3.00;;;;;;;;;;4947712;28;20050;-85
2024/01/23 08:50:53;;;;;;;22.65;2.92;;;;;;;;;;4954970;28;20035;-84
2024/01/23 08:53:19;;;;;;;19.08;2.40;;;;;;;;;;4960325;28;21041;-85
2024/01/23 08:55:47;;;;;;;29.00;4.00;;;;;;;;;;4947662;28;20268;-83
2024/01/23 08:58:16;;;;;;;22.35;3.25;;;;;;;;;;4957695;28;20040;-84
2024/01/23 09:00:41;;;;;;;16.48;2.67;;;;;;;;;;4970791;28;20027;-82
2024/01/23 09:03:07;;;;;;;28.00;3.88;;;;;;;;;;4971762;28;20108;-82
2024/01/23 09:05:32;;;;;;;24.92;3.63;;;;;;;;;;4965306;28;20053;-82
2024/01/23 09:07:57;;;;;;;22.25;3.20;;;;;;;;;;4993294;28;20027;-83
2024/01/23 09:10:23;;;;;;;16.17;3.60;;;;;;;;;;4993060;28;20023;-83
2024/01/23 09:12:48;;;;;;;21.23;2.53;;;;;;;;;;4976937;28;20050;-82
2024/01/23 09:15:14;;;;;;;16.23;2.72;;;;;;;;;;4965375;28;20726;-82
2024/01/23 09:17:40;;;;;;;23.30;3.10;;;;;;;;;;4982042;28;20044;-82
2024/01/23 09:20:06;;;;;;;21.98;3.65;;;;;;;;;;4966160;28;20031;-83
2024/01/23 09:22:31;;;;;;;20.02;3.05;;;;;;;;;;4999968;28;20085;-82
2024/01/23 09:24:59;;;;;;;23.52;3.45;;;;;;;;;;4986460;28;20042;-83
2024/01/23 09:27:24;;;;;;;12.40;2.55;;;;;;;;;;4989931;28;20046;-83
2024/01/23 09:29:50;;;;;;;19.02;3.53;;;;;;;;;;4991063;28;20409;-82
2024/01/23 09:32:15;;;;;;;26.75;2.95;;;;;;;;;;4971522;28;20035;-83
2024/01/23 09:34:41;;;;;;;26.27;4.05;;;;;;;;;;4972685;28;20128;-82
2024/01/23 09:37:06;;;;;;;16.33;2.72;;;;;;;;;;4970620;28;20043;-83
2024/01/23 09:39:32;;;;;;;19.35;2.92;;;;;;;;;;4966610;28;20030;-85
2024/01/23 09:42:01;;;;;;;24.65;3.35;;;;;;;;;;4955100;28;20100;-84
2024/01/23 09:44:27;;;;;;;20.73;3.42;;;;;;;;;;4947172;28;20028;-83
2024/01/23 09:46:54;;;;;;;19.08;2.90;;;;;;;;;;4959291;28;20015;-84
2024/01/23 09:49:20;;;;;;;23.08;3.72;;;;;;;;;;4948802;28;20232;-84
2024/01/23 09:51:47;;;;;;;21.92;3.22;;;;;;;;;;4964917;28;20044;-83
2024/01/23 09:54:16;;;;;;;21.23;2.90;;;;;;;;;;4963466;28;20048;-85
2024/01/23 09:56:42;;;;;;;15.63;2.90;;;;;;;;;;4944482;28;20082;-83
2024/01/23 09:59:09;;;;;;;24.67;2.78;;;;;;;;;;4968722;28;20074;-83
2024/01/23 10:01:35;;;;;;;12.00;2.75;;;;;;;;;;4938823;29;20027;-84
2024/01/23 10:04:04;;;;;;;24.30;3.13;;;;;;;;;;4966466;28;20031;-84
2024/01/23 10:06:30;;;;;;;14.30;2.38;;;;;;;;;;4958105;28;20041;-85
2024/01/23 10:08:56;;;;;;;18.55;2.80;;;;;;;;;;4933451;29;20046;-84
2024/01/23 10:11:21;;;;;;;19.27;2.88;;;;;;;;;;4937016;28;20454;-84
2024/01/23 10:13:48;;;;;;;16.80;2.38;;;;;;;;;;4912334;29;21706;-83
2024/01/23 10:16:15;;;;;;;16.38;2.92;;;;;;;;;;4918054;28;21114;-83
2024/01/23 10:18:40;;;;;;;16.48;2.20;;;;;;;;;;4906479;29;20574;-83
2024/01/23 10:21:06;;;;;;;15.20;2.45;;;;;;;;;;4896917;29;20122;-83
2024/01/23 10:23:33;;;;;;;24.45;4.05;;;;;;;;;;4920411;28;20573;-85
2024/01/23 10:25:59;;;;;;;20.88;3.63;;;;;;;;;;4908139;29;20036;-82
2024/01/23 10:28:24;;;;;;;20.77;3.83;;;;;;;;;;4900639;28;20158;-83
2024/01/23 10:30:50;;;;;;;16.55;3.25;;;;;;;;;;4923592;29;21007;-83
2024/01/23 10:33:16;;;;;;;14.60;3.00;;;;;;;;;;4907452;29;20044;-83
2024/01/23 10:35:42;;;;;;;22.85;3.50;;;;;;;;;;4910131;29;20124;-83
2024/01/23 10:38:10;;;;;;;19.77;2.90;;;;;;;;;;4926428;29;20047;-83
2024/01/23 10:40:38;;;;;;;15.25;3.78;;;;;;;;;;4924725;28;20098;-83
2024/01/23 10:43:03;;;;;;;15.15;3.60;;;;;;;;;;4925477;29;20036;-85
2024/01/23 10:45:31;;;;;;;14.48;2.63;;;;;;;;;;4930187;29;20822;-83
2024/01/23 10:47:59;;;;;;;15.50;2.95;;;;;;;;;;4926823;29;20043;-82
2024/01/23 10:50:24;;;;;;;19.08;2.83;;;;;;;;;;4929030;29;20696;-84
2024/01/23 10:52:50;;;;;;;16.05;3.10;;;;;;;;;;4913490;29;20042;-83
2024/01/23 10:55:21;;;;;;;17.00;3.28;;;;;;;;;;4923561;29;20786;-82
2024/01/23 10:57:47;;;;;;;18.73;3.95;;;;;;;;;;4911154;29;20039;-83
2024/01/23 11:00:16;;;;;;;19.92;3.05;;;;;;;;;;4923896;29;20780;-84
2024/01/23 11:03:05;;;;;;;17.80;3.30;;;;;;;;;;4907485;29;20068;-84
2024/01/23 11:05:57;;;;;;;12.30;3.00;;;;;;;;;;4922399;29;20044;-83
2024/01/23 11:08:29;;;;;;;19.33;2.85;;;;;;;;;;4921169;29;20342;-85
2024/01/23 11:11:04;;;;;;;16.58;2.58;;;;;;;;;;4921713;29;20131;-82
2024/01/23 11:13:37;;;;;;;14.07;2.92;;;;;;;;;;4903471;29;20118;-83
2024/01/23 11:16:06;;;;;;;20.80;3.35;;;;;;;;;;4903993;29;20548;-83
2024/01/23 11:18:33;;;;;;;14.90;2.95;;;;;;;;;;4898953;29;20521;-82
2024/01/23 11:21:08;;;;;;;19.73;3.42;;;;;;;;;;4923718;29;20107;-84
2024/01/23 11:23:46;;;;;;;12.73;3.00;;;;;;;;;;4919473;29;20040;-82
2024/01/23 11:26:19;;;;;;;22.83;3.15;;;;;;;;;;4921532;29;20151;-83
2024/01/23 11:28:53;;;;;;;15.52;2.75;;;;;;;;;;4902436;29;20046;-82
2024/01/23 11:31:23;;;;;;;19.02;2.40;;;;;;;;;;4934348;29;20055;-82
2024/01/23 11:33:51;;;;;;;17.05;2.78;;;;;;;;;;4957835;28;20405;-84
2024/01/23 11:36:28;;;;;;;11.15;2.67;;;;;;;;;;4938989;28;20040;-82
2024/01/23 11:38:58;;;;;;;19.35;2.67;;;;;;;;;;4945085;28;20045;-83
2024/01/23 11:41:27;;;;;;;24.33;2.95;;;;;;;;;;4951140;28;20046;-82
2024/01/23 11:44:15;;;;;;;10.02;2.25;;;;;;;;;;4979119;28;20157;-84
2024/01/23 11:46:42;;;;;;;13.38;2.45;;;;;;;;;;4962595;28;20042;-82
2024/01/23 11:49:07;;;;;;;8.40;1.73;;;;;;;;;;4961167;28;20581;-84
2024/01/23 11:51:37;;;;;;;13.57;2.58;;;;;;;;;;4964393;28;20563;-83
2024/01/23 11:54:07;;;;;;;15.48;2.72;;;;;;;;;;4944722;28;20079;-84
2024/01/23 11:56:33;;;;;;;21.95;2.90;;;;;;;;;;4939996;28;20121;-83
2024/01/23 11:58:59;;;;;;;14.57;2.60;;;;;;;;;;4964095;28;20208;-84
2024/01/23 12:01:27;;;;;;;13.90;2.95;;;;;;;;;;4957056;28;20047;-84
2024/01/23 12:03:53;;;;;;;12.02;2.30;;;;;;;;;;4956391;28;20054;-83
2024/01/23 12:06:19;;;;;;;10.38;2.33;;;;;;;;;;4964804;28;20405;-83
2024/01/23 12:08:45;;;;;;;10.45;2.45;;;;;;;;;;4949673;28;20094;-85
2024/01/23 12:11:13;;;;;;;20.77;2.90;;;;;;;;;;4946129;29;20066;-83
2024/01/23 12:13:38;;;;;;;16.10;2.80;;;;;;;;;;4939042;28;20043;-84
2024/01/23 12:16:08;;;;;;;12.52;2.28;;;;;;;;;;4952176;28;20038;-83
2024/01/23 12:18:33;;;;;;;8.57;2.22;;;;;;;;;;4940706;28;20452;-86
2024/01/23 12:20:59;;;;;;;16.48;2.42;;;;;;;;;;4967611;28;20126;-85
2024/01/23 12:23:25;;;;;;;15.57;2.65;;;;;;;;;;4936607;28;20039;-87
2024/01/23 12:25:50;;;;;;;14.90;2.22;;;;;;;;;;4935055;28;20043;-84
2024/01/23 12:28:17;;;;;;;11.50;2.63;;;;;;;;;;4943201;28;20055;-83
2024/01/23 12:30:46;;;;;;;14.73;2.80;;;;;;;;;;4938834;29;20040;-83
2024/01/23 12:33:16;;;;;;;24.90;3.80;;;;;;;;;;4908335;29;20143;-82
2024/01/23 12:35:42;;;;;;;10.50;2.10;;;;;;;;;;4907007;29;20048;-84
2024/01/23 12:38:07;;;;;;;17.30;3.00;;;;;;;;;;4901673;29;20052;-82
2024/01/23 12:40:36;;;;;;;15.10;2.83;;;;;;;;;;4923947;29;20043;-88
2024/01/23 12:43:01;;;;;;;18.20;2.72;;;;;;;;;;4924115;29;20040;-82
2024/01/23 12:45:27;;;;;;;16.08;3.05;;;;;;;;;;4944925;28;20026;-82
2024/01/23 12:47:52;;;;;;;16.85;2.97;;;;;;;;;;4942402;28;20055;-84
2024/01/23 12:50:25;;;;;;;15.18;2.90;;;;;;;;;;4939883;28;20375;-83
2024/01/23 12:52:51;;;;;;;16.63;2.20;;;;;;;;;;4914372;29;20131;-83
2024/01/23 12:55:20;;;;;;;14.57;2.33;;;;;;;;;;4917051;29;20043;-83
2024/01/23 12:57:46;;;;;;;14.82;3.53;;;;;;;;;;4918986;29;20055;-85
2024/01/23 13:00:16;;;;;;;17.02;2.78;;;;;;;;;;4909154;29;20433;-85
2024/01/23 13:02:42;;;;;;;22.55;3.45;;;;;;;;;;4920008;28;20043;-84
2024/01/23 13:05:08;;;;;;;17.90;2.78;;;;;;;;;;4929721;29;20043;-83
2024/01/23 13:07:34;;;;;;;22.63;3.33;;;;;;;;;;4920445;29;20036;-84
2024/01/23 13:10:00;;;;;;;13.45;2.38;;;;;;;;;;4943352;28;20041;-83
2024/01/23 13:12:26;;;;;;;14.50;3.63;;;;;;;;;;4925896;28;20094;-82
2024/01/23 13:14:51;;;;;;;15.15;3.10;;;;;;;;;;4941699;28;20055;-82
2024/01/23 13:17:19;;;;;;;17.20;3.00;;;;;;;;;;4944306;28;20476;-83
2024/01/23 13:19:46;;;;;;;10.13;2.22;;;;;;;;;;4941697;28;20047;-83
2024/01/23 13:22:12;;;;;;;23.58;2.95;;;;;;;;;;4927463;29;20040;-85
2024/01/23 13:24:37;;;;;;;11.85;2.45;;;;;;;;;;4932115;29;20027;-85
2024/01/23 13:27:12;;;;;;;13.90;2.53;;;;;;;;;;4926938;28;20043;-83
2024/01/23 13:29:37;;;;;;;25.90;3.25;;;;;;;;;;4942903;28;20039;-81
2024/01/23 13:32:05;;;;;;;11.10;1.85;;;;;;;;;;4920623;28;20114;-82
2024/01/23 13:34:35;;;;;;;11.32;1.85;;;;;;;;;;4939178;28;20059;-84
2024/01/23 13:37:04;;;;;;;15.32;2.67;;;;;;;;;;4943697;28;20585;-83
2024/01/23 13:39:33;;;;;;;12.30;2.67;;;;;;;;;;4926439;29;20043;-86
2024/01/23 13:41:58;;;;;;;12.48;2.47;;;;;;;;;;4944027;28;20050;-82
2024/01/23 13:44:24;;;;;;;18.25;3.05;;;;;;;;;;4927178;29;20118;-83
2024/01/23 13:46:49;;;;;;;18.52;3.30;;;;;;;;;;4945013;28;20039;-84
2024/01/23 13:49:18;;;;;;;12.68;2.90;;;;;;;;;;4930017;28;20506;-85
2024/01/23 13:51:43;;;;;;;15.15;3.15;;;;;;;;;;4928389;28;20045;-83
2024/01/23 13:54:09;;;;;;;15.65;2.53;;;;;;;;;;4926781;29;20151;-84
2024/01/23 13:56:37;;;;;;;10.45;2.60;;;;;;;;;;4926284;29;20607;-86
2024/01/23 13:59:07;;;;;;;18.02;2.70;;;;;;;;;;4934108;29;20079;-84
2024/01/23 14:01:36;;;;;;;11.70;2.22;;;;;;;;;;4924142;29;20043;-89
2024/01/23 14:04:02;;;;;;;18.58;2.70;;;;;;;;;;4948142;28;20031;-87
2024/01/23 14:06:28;;;;;;;17.52;3.10;;;;;;;;;;4944885;28;20464;-87
2024/01/23 14:08:59;;;;;;;7.70;2.05;;;;;;;;;;4940871;28;20603;-85
2024/01/23 14:11:28;;;;;;;22.70;3.70;;;;;;;;;;4939215;28;20055;-88
2024/01/23 14:13:59;;;;;;;13.68;2.60;;;;;;;;;;4931797;28;20074;-84
2024/01/23 14:16:25;;;;;;;12.43;1.67;;;;;;;;;;4926048;28;20058;-86
2024/01/23 14:19:00;;;;;;;12.95;2.60;;;;;;;;;;4929410;29;20215;-88
2024/01/23 14:21:25;;;;;;;11.75;2.80;;;;;;;;;;4903842;29;20047;-86
2024/01/23 14:23:58;;;;;;;14.43;3.80;;;;;;;;;;4921489;29;20044;-88
2024/01/23 14:26:25;;;;;;;19.48;3.17;;;;;;;;;;4935519;28;20067;-87